sensor_id;sensor_type;location;lat;lon;timestamp;pressure;altitude;pressure_sealevel;temperature;humidity
58975;BME280;44751;52.236;5.178;2023-02-22T07:30:20;101072.75;;;4.91;100.00
58975;BME280;44751;52.236;5.178;2023-02-22T07:32:59;101079.22;;;4.88;100.00
58975;BME280;44751;52.236;5.178;2023-02-22T07:35:33;101081.75;;;4.90;100.00
58975;BME280;44751;52.236;5.178;2023-02-22T07:38:09;101077.41;;;4.89;100.00
58975;BME280;44751;52.236;5.178;2023-02-22T07:40:51;101083.06;;;5.06;100.00
58975;BME280;44751;52.236;5.178;2023-02-22T07:43:30;101077.97;;;4.93;100.00
58975;BME280;44751;52.236;5.178;2023-02-22T07:46:07;101078.69;;;4.95;100.00
58975;BME280;44751;52.236;5.178;2023-02-22T07:48:52;101082.50;;;5.12;100.00
58975;BME280;44751;52.236;5.178;2023-02-22T07:51:23;101067.72;;;5.08;100.00
58975;BME280;44751;52.236;5.178;2023-02-22T07:53:51;101069.25;;;5.10;100.00
58975;BME280;44751;52.236;5.178;2023-02-22T07:56:22;101063.38;;;5.16;100.00
58975;BME280;44751;52.236;5.178;2023-02-22T07:58:58;101076.47;;;5.20;100.00
58975;BME280;44751;52.236;5.178;2023-02-22T08:01:41;101081.97;;;5.18;100.00
58975;BME280;44751;52.236;5.178;2023-02-22T08:04:11;101097.19;;;5.27;100.00
58975;BME280;44751;52.236;5.178;2023-02-22T08:06:41;101079.97;;;5.20;100.00
58975;BME280;44751;52.236;5.178;2023-02-22T08:09:13;101076.34;;;5.21;100.00
58975;BME280;44751;52.236;5.178;2023-02-22T08:11:43;101082.09;;;5.16;100.00
58975;BME280;44751;52.236;5.178;2023-02-22T08:14:14;101081.56;;;5.33;100.00
58975;BME280;44751;52.236;5.178;2023-02-22T08:16:42;101092.53;;;5.29;100.00
58975;BME280;44751;52.236;5.178;2023-02-22T08:19:19;101099.97;;;5.26;100.00
58975;BME280;44751;52.236;5.178;2023-02-22T08:21:56;101089.31;;;5.46;100.00
58975;BME280;44751;52.236;5.178;2023-02-22T08:24:22;101073.41;;;5.54;100.00
58975;BME280;44751;52.236;5.178;2023-02-22T08:26:57;101074.81;;;5.48;100.00
58975;BME280;44751;52.236;5.178;2023-02-22T08:29:26;101073.53;;;5.52;100.00
58975;BME280;44751;52.236;5.178;2023-02-22T08:31:58;101077.34;;;5.50;100.00
58975;BME280;44751;52.236;5.178;2023-02-22T08:34:32;101071.31;;;5.48;100.00
58975;BME280;44751;52.236;5.178;2023-02-22T08:37:01;101066.91;;;5.66;100.00
58975;BME280;44751;52.236;5.178;2023-02-22T08:39:27;101082.97;;;5.66;100.00
58975;BME280;44751;52.236;5.178;2023-02-22T08:42:03;101081.56;;;5.62;100.00
58975;BME280;44751;52.236;5.178;2023-02-22T08:44:30;101086.38;;;5.68;100.00
58975;BME280;44751;52.236;5.178;2023-02-22T08:47:00;101087.38;;;5.77;100.00
58975;BME280;44751;52.236;5.178;2023-02-22T08:49:40;101083.09;;;5.94;100.00
58975;BME280;44751;52.236;5.178;2023-02-22T08:52:13;101079.88;;;6.01;100.00
58975;BME280;44751;52.236;5.178;2023-02-22T08:54:44;101078.75;;;6.03;100.00
58975;BME280;44751;52.236;5.178;2023-02-22T08:57:11;101072.84;;;6.10;100.00
58975;BME280;44751;52.236;5.178;2023-02-22T08:59:43;101067.03;;;6.04;100.00
58975;BME280;44751;52.236;5.178;2023-02-22T09:02:18;101068.72;;;6.15;100.00
58975;BME280;44751;52.236;5.178;2023-02-22T09:04:47;101067.63;;;6.08;100.00
58975;BME280;44751;52.236;5.178;2023-02-22T09:07:16;101055.75;;;6.01;100.00
58975;BME280;44751;52.236;5.178;2023-02-22T09:09:51;101062.75;;;6.31;100.00
58975;BME280;44751;52.236;5.178;2023-02-22T09:12:23;101061.66;;;6.14;100.00
58975;BME280;44751;52.236;5.178;2023-02-22T09:14:53;101054.31;;;6.26;100.00
58975;BME280;44751;52.236;5.178;2023-02-22T09:17:22;101054.59;;;6.23;100.00
58975;BME280;44751;52.236;5.178;2023-02-22T09:19:52;101047.97;;;6.27;100.00
58975;BME280;44751;52.236;5.178;2023-02-22T09:22:18;101053.69;;;6.42;100.00
58975;BME280;44751;52.236;5.178;2023-02-22T09:24:45;101056.53;;;6.31;100.00
58975;BME280;44751;52.236;5.178;2023-02-22T09:27:12;101046.13;;;6.28;100.00
58975;BME280;44751;52.236;5.178;2023-02-22T09:29:39;101046.22;;;6.46;100.00
58975;BME280;44751;52.236;5.178;2023-02-22T09:32:24;101031.88;;;6.65;100.00
58975;BME280;44751;52.236;5.178;2023-02-22T09:35:03;101031.13;;;6.73;100.00
58975;BME280;44751;52.236;5.178;2023-02-22T09:37:32;101023.44;;;6.88;100.00
58975;BME280;44751;52.236;5.178;2023-02-22T09:39:59;101017.69;;;7.01;100.00
58975;BME280;44751;52.236;5.178;2023-02-22T09:42:45;101021.16;;;7.12;100.00
58975;BME280;44751;52.236;5.178;2023-02-22T09:45:33;101027.25;;;7.04;100.00
58975;BME280;44751;52.236;5.178;2023-02-22T09:51:00;101025.75;;;7.38;100.00
58975;BME280;44751;52.236;5.178;2023-02-22T09:53:47;101017.75;;;7.28;100.00
58975;BME280;44751;52.236;5.178;2023-02-22T09:56:19;101009.56;;;7.47;100.00
58975;BME280;44751;52.236;5.178;2023-02-22T09:58:54;101004.66;;;7.43;100.00
58975;BME280;44751;52.236;5.178;2023-02-22T10:01:39;101003.28;;;7.57;100.00
58975;BME280;44751;52.236;5.178;2023-02-22T12:13:33;100945.16;;;9.20;100.00
58975;BME280;44751;52.236;5.178;2023-02-22T12:19:10;100943.97;;;9.23;100.00
58975;BME280;44751;52.236;5.178;2023-02-22T12:22:09;100938.41;;;9.33;100.00
58975;BME280;44751;52.236;5.178;2023-02-22T12:25:02;100930.81;;;9.28;100.00
58975;BME280;44751;52.236;5.178;2023-02-22T12:27:50;100922.94;;;9.43;100.00
58975;BME280;44751;52.236;5.178;2023-02-22T12:33:18;100934.19;;;9.55;100.00
58975;BME280;44751;52.236;5.178;2023-02-22T12:39:20;100917.28;;;9.86;100.00
58975;BME280;44751;52.236;5.178;2023-02-22T12:41:54;100912.34;;;9.98;100.00
58975;BME280;44751;52.236;5.178;2023-02-22T12:44:38;100920.59;;;9.97;100.00
58975;BME280;44751;52.236;5.178;2023-02-22T12:47:15;100919.09;;;9.94;100.00
58975;BME280;44751;52.236;5.178;2023-02-22T12:50:20;100918.66;;;9.82;100.00
58975;BME280;44751;52.236;5.178;2023-02-22T12:58:28;100925.13;;;10.13;100.00
58975;BME280;44751;52.236;5.178;2023-02-22T13:01:16;100926.53;;;10.32;100.00
58975;BME280;44751;52.236;5.178;2023-02-22T13:03:57;100926.56;;;10.24;100.00
